Time;durP1;ratioP1;P1;durP2;ratioP2;P2;SDS_P1;SDS_P2;PMS_P1;PMS_P2;Temp;Humidity;BMP_temperature;BMP_pressure;BME280_temperature;BME280_humidity;BME280_pressure;Samples;Min_cycle;Max_cycle;Signal;HPM_P1;HPM_P2
2021/07/25 00:02:25;;;;;;;22.13;15.27;;;17.60;99.90;;;;;;5073457;28;20156;-69
2021/07/25 00:04:50;;;;;;;19.00;14.13;;;17.50;99.90;;;;;;5072916;28;20426;-69
2021/07/25 00:07:16;;;;;;;20.67;15.47;;;17.50;99.90;;;;;;5072461;28;20938;-69
2021/07/25 00:09:41;;;;;;;20.23;14.40;;;17.50;99.90;;;;;;5058248;28;20173;-69
2021/07/25 00:12:07;;;;;;;19.70;15.00;;;17.50;99.90;;;;;;5052731;28;20210;-69
2021/07/25 00:14:32;;;;;;;20.90;15.80;;;17.50;99.90;;;;;;5052754;28;20182;-69
2021/07/25 00:16:58;;;;;;;19.87;14.70;;;17.50;99.90;;;;;;5053033;28;20243;-69
2021/07/25 00:19:24;;;;;;;18.90;15.30;;;17.50;99.90;;;;;;5052720;28;20165;-69
2021/07/25 00:21:49;;;;;;;18.67;15.03;;;17.50;99.90;;;;;;5052575;28;20164;-69
2021/07/25 00:24:21;;;;;;;19.37;14.40;;;17.60;99.90;;;;;;5067953;28;20178;-69
2021/07/25 00:26:48;;;;;;;19.23;15.10;;;17.60;99.90;;;;;;5072362;28;20237;-69
2021/07/25 00:29:15;;;;;;;17.63;13.33;;;17.60;99.90;;;;;;5072509;28;20402;-69
2021/07/25 00:31:41;;;;;;;19.20;14.50;;;17.60;99.90;;;;;;5072860;28;20414;-69
2021/07/25 00:34:07;;;;;;;17.57;14.20;;;17.70;99.90;;;;;;5072472;28;20432;-69
2021/07/25 00:36:32;;;;;;;17.10;14.97;;;17.70;99.90;;;;;;5072460;28;20158;-69
2021/07/25 00:38:58;;;;;;;16.70;13.70;;;17.70;99.90;;;;;;5072215;28;20225;-69
2021/07/25 00:41:23;;;;;;;17.00;13.53;;;17.70;99.90;;;;;;5071925;28;20179;-69
2021/07/25 00:43:49;;;;;;;15.30;13.10;;;17.70;99.90;;;;;;5072076;28;20175;-69
2021/07/25 00:46:16;;;;;;;15.77;13.70;;;17.80;99.90;;;;;;5072504;28;20211;-69
2021/07/25 00:48:43;;;;;;;16.90;12.67;;;17.80;99.90;;;;;;5072355;28;20212;-69
2021/07/25 00:51:09;;;;;;;17.23;13.97;;;17.80;99.90;;;;;;5072340;28;20427;-69
2021/07/25 00:53:37;;;;;;;17.97;13.40;;;17.90;99.90;;;;;;5072153;28;20948;-69
2021/07/25 00:56:04;;;;;;;18.30;13.70;;;17.90;99.90;;;;;;5072612;28;20406;-69
2021/07/25 00:58:31;;;;;;;19.47;14.87;;;17.90;99.90;;;;;;5071978;28;20777;-69
2021/07/25 01:00:56;;;;;;;16.07;13.23;;;17.90;99.90;;;;;;5072321;28;20431;-69
2021/07/25 01:06:33;;;;;;;17.77;13.90;;;17.90;99.90;;;;;;5069795;28;20534;-70
2021/07/25 01:09:07;;;;;;;16.17;13.50;;;18.00;99.90;;;;;;5068959;28;20417;-70
2021/07/25 01:11:45;;;;;;;16.87;12.87;;;18.00;99.90;;;;;;5049797;28;20440;-70
2021/07/25 01:14:16;;;;;;;19.93;13.80;;;18.00;99.90;;;;;;5050367;28;20417;-70
2021/07/25 01:16:41;;;;;;;18.40;14.77;;;18.00;99.90;;;;;;5050208;28;20407;-70
2021/07/25 01:19:07;;;;;;;17.87;14.47;;;18.00;99.90;;;;;;5049599;28;20390;-70
2021/07/25 01:21:32;;;;;;;17.27;13.47;;;18.00;99.90;;;;;;5049550;28;20156;-70
2021/07/25 01:23:59;;;;;;;19.00;13.70;;;18.00;99.90;;;;;;5049435;28;20180;-70
2021/07/25 01:26:28;;;;;;;17.23;13.20;;;18.10;99.90;;;;;;5049532;28;20240;-70
2021/07/25 01:28:57;;;;;;;21.63;13.63;;;18.10;99.90;;;;;;5049398;28;20418;-70
2021/07/25 01:31:43;;;;;;;17.93;13.27;;;18.10;99.90;;;;;;5050432;28;20407;-70
2021/07/25 01:34:10;;;;;;;18.30;14.27;;;18.10;99.90;;;;;;5049379;28;20402;-70
2021/07/25 01:36:39;;;;;;;19.87;15.40;;;18.10;99.90;;;;;;5049118;28;20395;-70
2021/07/25 01:39:05;;;;;;;16.83;13.10;;;18.10;99.90;;;;;;5049055;28;20488;-70
2021/07/25 01:41:30;;;;;;;19.60;14.80;;;18.10;99.90;;;;;;5049230;28;20395;-70
2021/07/25 01:43:56;;;;;;;17.23;14.30;;;18.20;99.90;;;;;;5049225;28;20269;-70
2021/07/25 01:46:22;;;;;;;18.97;14.10;;;18.20;99.90;;;;;;5049188;28;20210;-70
2021/07/25 01:48:47;;;;;;;19.50;14.10;;;18.20;99.90;;;;;;5050122;28;20172;-71
2021/07/25 01:51:14;;;;;;;20.27;15.53;;;18.20;99.90;;;;;;5049158;28;20152;-70
2021/07/25 01:53:40;;;;;;;22.10;16.37;;;18.20;99.90;;;;;;5049012;28;20632;-70
2021/07/25 01:56:06;;;;;;;20.83;14.10;;;18.20;99.90;;;;;;5048947;28;20391;-70
2021/07/25 01:58:31;;;;;;;20.77;15.07;;;18.20;99.90;;;;;;5049078;28;20192;-70
2021/07/25 02:00:57;;;;;;;20.20;14.03;;;18.20;99.90;;;;;;5048920;28;20156;-70
2021/07/25 02:03:24;;;;;;;21.93;15.07;;;18.30;99.90;;;;;;5048937;28;20169;-70
2021/07/25 02:05:50;;;;;;;18.77;15.30;;;18.30;99.90;;;;;;5049767;28;20210;-70
2021/07/25 02:08:17;;;;;;;21.70;15.50;;;18.30;99.90;;;;;;5048523;28;20489;-70
2021/07/25 02:10:45;;;;;;;21.80;15.10;;;18.30;99.90;;;;;;5061940;28;20247;-70
2021/07/25 02:13:13;;;;;;;20.23;15.53;;;18.30;99.90;;;;;;5048536;28;20407;-70
2021/07/25 02:15:38;;;;;;;19.07;14.23;;;18.30;99.90;;;;;;5045324;28;20759;-70
2021/07/25 02:18:04;;;;;;;18.70;14.90;;;18.30;99.90;;;;;;5035331;28;20402;-70
2021/07/25 02:20:29;;;;;;;22.00;14.50;;;18.30;99.90;;;;;;5035271;28;20157;-70
2021/07/25 02:22:55;;;;;;;19.80;15.33;;;18.30;99.90;;;;;;5036284;28;20275;-70
2021/07/25 02:25:20;;;;;;;21.03;15.70;;;18.30;99.90;;;;;;5035019;28;20228;-70
2021/07/25 02:27:46;;;;;;;21.87;14.23;;;18.30;99.90;;;;;;5035210;28;20183;-70
2021/07/25 02:30:11;;;;;;;19.53;14.23;;;18.30;99.90;;;;;;5035057;28;20557;-70
2021/07/25 02:32:37;;;;;;;17.93;13.57;;;18.30;99.90;;;;;;5035247;28;20197;-70
2021/07/25 02:35:03;;;;;;;21.60;15.17;;;18.30;99.90;;;;;;5034978;28;20227;-70
2021/07/25 02:37:28;;;;;;;22.87;15.37;;;18.30;99.90;;;;;;5034968;28;20581;-70
2021/07/25 02:39:54;;;;;;;17.03;12.83;;;18.20;99.90;;;;;;5046498;28;20426;-70
2021/07/25 02:42:19;;;;;;;16.97;13.50;;;18.20;99.90;;;;;;5054695;28;20235;-70
2021/07/25 02:44:45;;;;;;;17.07;13.57;;;18.10;99.90;;;;;;5055094;28;20192;-70
2021/07/25 02:47:11;;;;;;;20.20;14.50;;;18.10;99.90;;;;;;5054748;28;20172;-70
2021/07/25 02:49:36;;;;;;;18.87;14.47;;;18.00;99.90;;;;;;5054633;28;20149;-70
2021/07/25 02:52:02;;;;;;;19.80;15.20;;;18.00;99.90;;;;;;5054750;28;20383;-70
2021/07/25 02:54:28;;;;;;;22.40;16.43;;;17.90;99.90;;;;;;5055221;28;20164;-70
2021/07/25 02:56:54;;;;;;;18.90;14.10;;;17.90;99.90;;;;;;5052768;28;20446;-71
2021/07/25 02:59:20;;;;;;;19.00;14.20;;;17.80;99.90;;;;;;5054556;28;20476;-71
2021/07/25 03:01:47;;;;;;;19.97;13.73;;;17.80;99.90;;;;;;5054350;28;20618;-71
2021/07/25 03:04:12;;;;;;;19.83;15.93;;;17.80;99.90;;;;;;5054177;28;20295;-71
2021/07/25 03:06:38;;;;;;;21.03;15.23;;;17.70;99.90;;;;;;5054396;28;20479;-70
2021/07/25 03:09:03;;;;;;;20.20;15.70;;;17.70;99.90;;;;;;5053605;28;20148;-71
2021/07/25 03:11:29;;;;;;;20.40;15.73;;;17.60;99.90;;;;;;5034199;28;20224;-71
2021/07/25 03:13:54;;;;;;;22.00;16.53;;;17.60;99.90;;;;;;5035544;28;20191;-71
2021/07/25 03:16:20;;;;;;;20.67;14.60;;;17.60;99.90;;;;;;5034263;28;20235;-71
2021/07/25 03:18:45;;;;;;;21.07;15.77;;;17.50;99.90;;;;;;5033979;28;20179;-71
2021/07/25 03:21:11;;;;;;;17.60;15.40;;;17.50;99.90;;;;;;5034202;28;20236;-70
2021/07/25 03:23:36;;;;;;;18.73;15.67;;;17.50;99.90;;;;;;5034080;28;20165;-71
2021/07/25 03:26:02;;;;;;;20.90;16.57;;;17.40;99.90;;;;;;5034080;28;20518;-71
2021/07/25 03:28:28;;;;;;;19.10;15.47;;;17.40;99.90;;;;;;5032993;28;20157;-71
2021/07/25 03:30:54;;;;;;;19.80;14.77;;;17.40;99.90;;;;;;5034916;28;20330;-71
2021/07/25 03:33:19;;;;;;;21.17;15.23;;;17.40;99.90;;;;;;5033883;28;20157;-70
2021/07/25 03:35:46;;;;;;;20.50;15.60;;;17.30;99.90;;;;;;5033923;28;20165;-70
2021/07/25 03:38:12;;;;;;;21.40;16.03;;;17.30;99.90;;;;;;5033945;28;20207;-71
2021/07/25 03:40:40;;;;;;;26.63;15.77;;;17.30;99.90;;;;;;5037365;28;20411;-71
2021/07/25 03:43:06;;;;;;;19.83;16.03;;;17.30;99.90;;;;;;5033696;28;20156;-71
2021/07/25 03:45:31;;;;;;;22.97;16.57;;;17.20;99.90;;;;;;5033617;28;20443;-71
2021/07/25 03:47:57;;;;;;;20.23;15.80;;;17.20;99.90;;;;;;5034626;28;20173;-70
2021/07/25 03:50:23;;;;;;;19.07;14.27;;;17.20;99.90;;;;;;5033555;28;20154;-71
2021/07/25 03:52:49;;;;;;;17.83;13.87;;;17.20;99.90;;;;;;5033569;28;20168;-70
2021/07/25 03:55:16;;;;;;;20.03;15.77;;;17.20;99.90;;;;;;5033291;28;20683;-71
2021/07/25 03:57:42;;;;;;;21.77;16.30;;;17.10;99.90;;;;;;5033390;28;20283;-71
2021/07/25 04:00:08;;;;;;;20.90;15.40;;;17.10;99.90;;;;;;5033131;28;20522;-71
2021/07/25 04:02:33;;;;;;;19.83;15.17;;;17.10;99.90;;;;;;5033391;28;20403;-70
2021/07/25 04:04:59;;;;;;;20.90;14.57;;;17.10;99.90;;;;;;5034583;28;20299;-71
2021/07/25 04:07:25;;;;;;;20.63;13.20;;;17.10;99.90;;;;;;5033530;28;20520;-70
2021/07/25 04:09:50;;;;;;;17.60;14.27;;;17.00;99.90;;;;;;5033395;28;20512;-70
2021/07/25 04:12:16;;;;;;;15.13;12.90;;;17.00;99.90;;;;;;5032887;28;20553;-70
2021/07/25 04:14:41;;;;;;;14.57;11.40;;;17.10;99.90;;;;;;5033239;28;20165;-70
2021/07/25 04:17:07;;;;;;;18.07;13.53;;;17.00;99.90;;;;;;5033127;28;20630;-70
2021/07/25 04:19:32;;;;;;;15.30;12.60;;;17.00;99.90;;;;;;5033457;28;20161;-71
2021/07/25 04:21:58;;;;;;;15.60;11.10;;;17.00;99.90;;;;;;5034467;28;20199;-71
2021/07/25 04:24:25;;;;;;;17.10;11.20;;;17.00;99.90;;;;;;5032872;28;20551;-70
2021/07/25 04:26:51;;;;;;;16.90;12.00;;;17.00;99.90;;;;;;5032880;28;20388;-71
2021/07/25 04:29:17;;;;;;;16.13;11.63;;;17.00;99.90;;;;;;5032833;28;20388;-71
2021/07/25 04:31:43;;;;;;;14.47;10.83;;;17.00;99.90;;;;;;5032752;28;20657;-70
2021/07/25 04:34:09;;;;;;;13.73;10.60;;;17.10;99.90;;;;;;5033397;28;20400;-70
2021/07/25 04:36:35;;;;;;;12.87;10.53;;;17.00;99.90;;;;;;5032823;28;20674;-70
2021/07/25 04:39:03;;;;;;;15.67;12.27;;;17.10;99.90;;;;;;5033697;28;20415;-70
2021/07/25 04:41:34;;;;;;;14.77;10.63;;;17.00;99.90;;;;;;5032657;28;20160;-70
2021/07/25 04:44:07;;;;;;;12.47;10.00;;;17.00;99.90;;;;;;5032516;28;20396;-71
2021/07/25 04:46:37;;;;;;;12.63;9.80;;;17.00;99.90;;;;;;5032587;28;20396;-70
2021/07/25 04:49:12;;;;;;;14.00;10.50;;;17.00;99.90;;;;;;5033422;28;20415;-71
2021/07/25 04:51:39;;;;;;;14.67;10.43;;;17.10;99.90;;;;;;5032990;28;20387;-71
2021/07/25 04:54:08;;;;;;;13.23;10.00;;;17.10;99.90;;;;;;5032605;28;20407;-71
2021/07/25 04:56:58;;;;;;;14.10;9.97;;;17.10;99.90;;;;;;5033545;28;20422;-71
2021/07/25 05:02:05;;;;;;;11.37;9.57;;;17.10;99.90;;;;;;5070160;28;20635;-70
2021/07/25 05:04:31;;;;;;;10.87;7.97;;;17.00;99.90;;;;;;5070518;28;20382;-70
2021/07/25 05:06:57;;;;;;;12.90;9.67;;;17.10;99.90;;;;;;5069895;28;20383;-70
2021/07/25 05:09:24;;;;;;;10.13;7.93;;;17.10;99.90;;;;;;5069713;28;20448;-70
2021/07/25 05:11:55;;;;;;;9.70;8.50;;;17.20;99.90;;;;;;5060128;28;20418;-70
2021/07/25 05:14:31;;;;;;;8.83;7.40;;;17.20;99.90;;;;;;5050271;28;20406;-70
2021/07/25 05:19:43;;;;;;;8.90;7.30;;;17.20;99.90;;;;;;5070374;28;20512;-70
2021/07/25 05:24:51;;;;;;;10.73;7.40;;;17.30;99.90;;;;;;5105822;27;20609;-70
2021/07/25 05:27:20;;;;;;;8.23;6.77;;;17.40;99.90;;;;;;5089839;28;20966;-70
2021/07/25 05:29:47;;;;;;;7.40;6.00;;;17.40;99.90;;;;;;5079133;28;20898;-70
2021/07/25 05:32:14;;;;;;;7.20;6.47;;;17.50;99.90;;;;;;5070328;28;20382;-70
2021/07/25 05:34:39;;;;;;;6.27;5.30;;;17.50;99.90;;;;;;5069866;28;20894;-70
2021/07/25 05:37:05;;;;;;;4.97;4.43;;;17.50;99.90;;;;;;5069777;28;20446;-70
2021/07/25 05:39:30;;;;;;;5.93;4.93;;;17.60;99.90;;;;;;5069676;28;20164;-70
2021/07/25 05:41:56;;;;;;;5.83;5.30;;;17.70;99.90;;;;;;5069467;28;20164;-70
2021/07/25 05:44:21;;;;;;;6.27;5.70;;;17.70;99.90;;;;;;5069494;28;20176;-70
2021/07/25 05:46:47;;;;;;;5.20;4.70;;;17.80;99.90;;;;;;5071376;28;20175;-70
2021/07/25 05:49:12;;;;;;;7.93;5.10;;;17.80;99.90;;;;;;5069875;28;20248;-70
2021/07/25 05:51:38;;;;;;;8.33;5.20;;;17.90;99.90;;;;;;5069529;28;20578;-70
2021/07/25 05:54:03;;;;;;;6.57;5.90;;;18.00;99.90;;;;;;5069247;28;20357;-70
2021/07/25 05:56:29;;;;;;;7.93;4.87;;;18.00;99.90;;;;;;5069458;28;20198;-70
2021/07/25 05:58:54;;;;;;;8.30;5.23;;;18.00;99.90;;;;;;5070128;28;20196;-70
2021/07/25 06:01:20;;;;;;;5.90;4.87;;;18.10;99.90;;;;;;5070371;28;20156;-70
2021/07/25 06:03:45;;;;;;;5.43;4.40;;;18.20;99.90;;;;;;5070697;28;20205;-70
2021/07/25 06:06:11;;;;;;;3.67;3.00;;;18.20;99.90;;;;;;5069184;28;20159;-70
2021/07/25 06:08:37;;;;;;;5.83;5.00;;;18.30;99.90;;;;;;5068937;28;20152;-70
2021/07/25 06:11:02;;;;;;;4.83;4.00;;;18.40;99.90;;;;;;5068917;28;20535;-70
2021/07/25 06:13:28;;;;;;;4.63;4.07;;;18.50;99.90;;;;;;5068832;28;20160;-70
2021/07/25 06:15:53;;;;;;;4.73;4.27;;;18.60;99.90;;;;;;5087405;28;20636;-70
2021/07/25 06:18:19;;;;;;;4.70;3.83;;;18.70;99.90;;;;;;5089510;28;20624;-70
2021/07/25 06:20:44;;;;;;;5.47;4.40;;;18.70;99.90;;;;;;5078442;28;20281;-70
2021/07/25 06:23:13;;;;;;;5.10;4.07;;;18.80;99.90;;;;;;5068848;28;20688;-70
2021/07/25 06:25:39;;;;;;;5.40;3.97;;;18.90;99.90;;;;;;5069019;28;20164;-70
2021/07/25 06:28:05;;;;;;;4.20;3.80;;;19.00;99.90;;;;;;5068667;28;20419;-70
2021/07/25 06:30:31;;;;;;;4.73;4.10;;;19.00;99.90;;;;;;5069844;28;20160;-70
2021/07/25 06:35:39;;;;;;;4.70;3.63;;;19.20;99.90;;;;;;5069881;28;20520;-70
2021/07/25 06:38:07;;;;;;;5.43;3.70;;;19.20;99.90;;;;;;5056515;28;20488;-70
2021/07/25 06:40:34;;;;;;;4.17;3.77;;;19.30;99.90;;;;;;5049874;28;20892;-70
2021/07/25 06:43:00;;;;;;;3.73;3.40;;;19.30;99.90;;;;;;5049868;28;20414;-70
2021/07/25 06:45:27;;;;;;;4.50;3.80;;;19.40;99.90;;;;;;5050295;28;20446;-70
2021/07/25 06:47:53;;;;;;;4.67;3.83;;;19.50;99.90;;;;;;5049763;28;20445;-70
2021/07/25 06:50:20;;;;;;;5.67;3.90;;;19.60;99.90;;;;;;5049728;28;20391;-70
2021/07/25 06:52:46;;;;;;;5.00;3.83;;;19.60;99.90;;;;;;5049529;28;20156;-70
2021/07/25 06:55:12;;;;;;;3.53;3.17;;;19.70;99.90;;;;;;5057790;28;20485;-71
2021/07/25 06:57:38;;;;;;;3.67;3.03;;;19.80;99.90;;;;;;5069945;28;20397;-70
2021/07/25 07:00:05;;;;;;;3.57;2.97;;;19.90;99.90;;;;;;5070126;28;20630;-70
2021/07/25 07:02:51;;;;;;;4.37;3.40;;;20.00;99.90;;;;;;5069483;28;20386;-70
2021/07/25 07:05:19;;;;;;;4.00;3.30;;;20.20;99.90;;;;;;5068465;28;20390;-70
2021/07/25 07:07:46;;;;;;;4.90;3.63;;;20.30;99.90;;;;;;5069356;28;20421;-70
2021/07/25 07:10:15;;;;;;;4.10;3.70;;;20.40;99.90;;;;;;5070407;28;20489;-70
2021/07/25 07:12:41;;;;;;;3.83;3.30;;;20.50;99.90;;;;;;5052146;28;20419;-70
2021/07/25 07:15:08;;;;;;;3.83;3.40;;;20.60;99.90;;;;;;5060382;28;20445;-71
2021/07/25 07:17:33;;;;;;;4.87;3.43;;;20.70;99.90;;;;;;5069134;28;20386;-71
2021/07/25 07:19:59;;;;;;;4.10;3.00;;;20.80;99.90;;;;;;5069165;28;20756;-71
2021/07/25 07:22:29;;;;;;;4.00;3.13;;;20.80;99.90;;;;;;5069106;28;20239;-70
2021/07/25 07:24:55;;;;;;;3.00;2.70;;;21.00;99.90;;;;;;5069467;28;20539;-70
2021/07/25 07:27:22;;;;;;;3.47;3.00;;;21.10;99.90;;;;;;5068869;28;20413;-71
2021/07/25 07:29:48;;;;;;;5.20;2.90;;;21.20;99.90;;;;;;5049846;28;20415;-71
2021/07/25 07:32:14;;;;;;;4.20;3.67;;;21.40;99.90;;;;;;5048881;28;20391;-70
2021/07/25 07:34:39;;;;;;;3.80;3.47;;;21.60;99.90;;;;;;5048749;28;20830;-70
2021/07/25 07:37:05;;;;;;;4.47;3.47;;;21.80;99.90;;;;;;5049094;28;20176;-70
2021/07/25 07:39:31;;;;;;;3.43;2.73;;;22.20;99.90;;;;;;5048838;28;20156;-70
2021/07/25 07:41:56;;;;;;;3.37;2.67;;;22.90;99.90;;;;;;5049194;28;20680;-71
2021/07/25 07:44:22;;;;;;;4.43;3.17;;;23.90;99.90;;;;;;5048841;28;20245;-69
2021/07/25 07:46:48;;;;;;;3.37;2.50;;;25.20;99.90;;;;;;5037320;28;20187;-69
2021/07/25 07:49:13;;;;;;;3.50;2.57;;;26.50;99.90;;;;;;5035374;28;20161;-71
2021/07/25 07:51:39;;;;;;;3.00;2.20;;;27.80;99.90;;;;;;5035416;28;20168;-71
2021/07/25 07:54:04;;;;;;;3.37;2.73;;;28.90;99.90;;;;;;5035270;28;20176;-71
2021/07/25 07:56:33;;;;;;;5.63;2.40;;;29.80;97.30;;;;;;5035818;28;20165;-70
2021/07/25 07:58:59;;;;;;;3.83;2.30;;;30.40;95.80;;;;;;5035136;28;20665;-69
2021/07/25 08:01:25;;;;;;;3.00;2.63;;;31.00;92.40;;;;;;5035426;28;20396;-69
2021/07/25 08:03:50;;;;;;;2.97;2.40;;;31.70;90.20;;;;;;5035783;28;20596;-70
2021/07/25 08:06:16;;;;;;;3.27;2.03;;;32.10;82.50;;;;;;5035089;28;20416;-70
2021/07/25 08:08:41;;;;;;;3.53;2.30;;;32.30;78.60;;;;;;5034841;28;20192;-70
2021/07/25 08:11:07;;;;;;;3.17;2.37;;;32.70;78.20;;;;;;5035016;28;20568;-70
2021/07/25 08:13:32;;;;;;;2.40;2.20;;;33.10;75.50;;;;;;5034758;28;20263;-70
2021/07/25 08:15:58;;;;;;;2.40;2.07;;;33.50;72.90;;;;;;5053013;28;20171;-70
2021/07/25 08:18:23;;;;;;;2.30;2.10;;;33.80;70.30;;;;;;5054320;28;20164;-70
2021/07/25 08:20:49;;;;;;;2.30;2.10;;;33.90;70.40;;;;;;5035765;28;20180;-70
2021/07/25 08:23:15;;;;;;;2.30;2.10;;;33.80;68.30;;;;;;5034768;28;20165;-70
2021/07/25 08:25:40;;;;;;;3.60;2.13;;;34.40;68.00;;;;;;5034818;28;20180;-71
2021/07/25 08:28:06;;;;;;;2.33;1.63;;;35.10;64.80;;;;;;5034680;28;20157;-71
2021/07/25 08:30:32;;;;;;;4.17;2.43;;;35.70;62.20;;;;;;5034599;28;20239;-70
2021/07/25 08:32:58;;;;;;;2.77;2.50;;;36.50;57.70;;;;;;5034793;28;20152;-70
2021/07/25 08:35:24;;;;;;;1.80;1.70;;;37.20;56.30;;;;;;5034606;28;20462;-70
2021/07/25 08:37:49;;;;;;;4.67;2.40;;;37.70;54.30;;;;;;5035319;28;20510;-70
2021/07/25 08:40:16;;;;;;;3.70;2.77;;;38.30;51.50;;;;;;5034562;28;20161;-70
2021/07/25 08:45:42;;;;;;;2.43;2.23;;;39.30;49.40;;;;;;5051226;28;20525;-70
2021/07/25 08:48:14;;;;;;;2.63;2.33;;;39.80;46.80;;;;;;5050047;28;20406;-70
2021/07/25 08:50:45;;;;;;;2.00;1.77;;;40.20;45.20;;;;;;5050233;28;20497;-70
2021/07/25 08:53:16;;;;;;;3.33;2.10;;;40.40;43.80;;;;;;5050478;28;20410;-71
2021/07/25 08:55:41;;;;;;;3.17;2.37;;;41.10;43.70;;;;;;5050562;28;20453;-71
2021/07/25 08:58:09;;;;;;;2.45;1.88;;;41.90;43.10;;;;;;5049754;28;20192;-70
2021/07/25 09:00:36;;;;;;;2.05;1.80;;;42.40;38.90;;;;;;5049942;28;20259;-70
2021/07/25 09:03:06;;;;;;;1.95;1.80;;;43.00;38.30;;;;;;5049819;28;20176;-70
2021/07/25 09:05:32;;;;;;;2.35;2.15;;;43.50;37.10;;;;;;5049608;28;20680;-70
2021/07/25 09:07:58;;;;;;;2.17;1.98;;;43.90;35.90;;;;;;5049735;28;20235;-71
2021/07/25 09:10:24;;;;;;;2.47;2.15;;;43.60;36.40;;;;;;5057140;28;20679;-71
2021/07/25 09:12:51;;;;;;;2.85;2.63;;;43.20;36.40;;;;;;5049476;28;20188;-71
2021/07/25 09:15:20;;;;;;;2.60;2.40;;;43.30;36.30;;;;;;5062205;28;20171;-71
2021/07/25 09:17:48;;;;;;;2.15;1.95;;;43.10;37.40;;;;;;5069395;28;20190;-71
2021/07/25 09:23:20;;;;;;;3.83;1.88;;;42.90;37.20;;;;;;5079336;28;20952;-75
2021/07/25 09:25:51;;;;;;;1.73;1.63;;;42.20;36.90;;;;;;5045664;28;20164;-75
2021/07/25 09:28:20;;;;;;;2.55;2.20;;;41.10;37.10;;;;;;5032354;27;20196;-75
2021/07/25 09:30:45;;;;;;;2.20;2.03;;;40.60;39.90;;;;;;5027185;28;20500;-75
2021/07/25 09:33:29;;;;;;;1.73;1.60;;;40.10;39.50;;;;;;5028266;28;20218;-75
2021/07/25 09:36:05;;;;;;;2.05;1.95;;;39.40;40.90;;;;;;5028632;28;20247;-75
2021/07/25 09:38:31;;;;;;;1.67;1.58;;;39.30;42.00;;;;;;5028449;28;20152;-75
2021/07/25 09:40:57;;;;;;;5.28;2.38;;;38.70;39.80;;;;;;5029275;28;20196;-75
2021/07/25 09:43:24;;;;;;;2.38;2.17;;;38.00;42.70;;;;;;5030010;27;20153;-75
2021/07/25 09:48:29;;;;;;;1.48;1.38;;;37.70;45.90;;;;;;5070035;28;20520;-73
2021/07/25 09:50:59;;;;;;;1.90;1.80;;;37.60;43.70;;;;;;5070023;28;20198;-71
2021/07/25 09:53:42;;;;;;;1.90;1.70;;;37.40;45.10;;;;;;5069939;28;20584;-72
2021/07/25 09:56:15;;;;;;;2.20;2.00;;;37.10;45.60;;;;;;5069740;28;20234;-71
2021/07/25 09:58:41;;;;;;;1.87;1.60;;;36.90;45.20;;;;;;5069732;28;20267;-72
2021/07/25 10:01:07;;;;;;;1.60;1.50;;;36.40;44.90;;;;;;5063713;28;20600;-71
2021/07/25 10:03:33;;;;;;;2.20;2.00;;;36.00;46.60;;;;;;5050651;28;20464;-70
2021/07/25 10:06:19;;;;;;;2.30;2.10;;;35.40;47.10;;;;;;5049501;28;20184;-70
2021/07/25 10:08:45;;;;;;;2.13;1.93;;;34.90;48.00;;;;;;5048565;28;20218;-72
2021/07/25 10:11:19;;;;;;;2.20;1.80;;;34.70;50.20;;;;;;5049639;28;20398;-72
2021/07/25 10:13:47;;;;;;;2.53;2.33;;;34.40;49.80;;;;;;5065125;28;20441;-72
2021/07/25 10:16:17;;;;;;;1.87;1.67;;;34.10;49.70;;;;;;5049397;28;20423;-72
2021/07/25 10:18:44;;;;;;;3.80;2.13;;;33.90;49.20;;;;;;5050452;28;20496;-72
2021/07/25 10:21:09;;;;;;;2.30;1.93;;;33.60;48.80;;;;;;5049289;28;20990;-72
2021/07/25 10:23:42;;;;;;;2.50;2.30;;;33.60;50.70;;;;;;5049394;28;20396;-72
2021/07/25 10:26:08;;;;;;;2.50;2.30;;;33.20;49.80;;;;;;5049288;28;20243;-72
2021/07/25 10:28:36;;;;;;;2.87;2.20;;;33.00;50.80;;;;;;5049044;28;21010;-72
2021/07/25 10:31:03;;;;;;;3.73;2.20;;;32.80;51.30;;;;;;5049197;28;20441;-72
2021/07/25 10:33:29;;;;;;;2.60;1.97;;;32.60;51.60;;;;;;5049216;28;20422;-72
2021/07/25 10:35:56;;;;;;;2.40;2.03;;;32.30;51.80;;;;;;5050438;28;20676;-72
2021/07/25 10:38:21;;;;;;;3.23;2.23;;;31.90;53.50;;;;;;5049215;28;20172;-72
2021/07/25 10:40:49;;;;;;;3.10;1.73;;;31.70;54.20;;;;;;5049268;28;21069;-72
2021/07/25 10:43:16;;;;;;;2.60;2.40;;;31.40;54.90;;;;;;5048893;28;20164;-72
2021/07/25 10:45:43;;;;;;;3.43;2.47;;;31.20;55.00;;;;;;5048833;28;20411;-71
2021/07/25 10:48:13;;;;;;;2.83;2.30;;;31.00;55.00;;;;;;5048944;28;21029;-72
2021/07/25 10:50:39;;;;;;;3.17;2.60;;;30.80;55.70;;;;;;5049215;28;20399;-72
2021/07/25 10:53:05;;;;;;;2.97;2.63;;;30.60;56.60;;;;;;5049950;28;20411;-72
2021/07/25 10:58:18;;;;;;;4.10;2.13;;;30.40;57.40;;;;;;5069940;28;20512;-71
2021/07/25 11:00:50;;;;;;;1.90;1.80;;;30.20;56.10;;;;;;5070025;28;20429;-71
2021/07/25 11:08:47;;;;;;;5.17;2.40;;;30.10;57.20;;;;;;5107414;27;20642;-71
2021/07/25 11:14:07;;;;;;;2.50;2.20;;;29.80;57.40;;;;;;5069698;28;20516;-72
2021/07/25 11:21:53;;;;;;;2.43;2.23;;;29.50;56.90;;;;;;5069942;28;20542;-72
2021/07/25 11:26:59;;;;;;;3.40;1.97;;;29.50;58.20;;;;;;5151413;27;20520;-72
2021/07/25 11:32:03;;;;;;;2.40;2.20;;;29.30;56.80;;;;;;5069978;28;20512;-72
2021/07/25 11:34:32;;;;;;;2.60;2.10;;;29.30;59.80;;;;;;5070284;28;20394;-72
2021/07/25 11:37:02;;;;;;;3.33;2.27;;;29.10;57.30;;;;;;5069935;28;20493;-72
2021/07/25 11:39:28;;;;;;;3.70;2.80;;;29.00;57.50;;;;;;5069820;28;20398;-72
2021/07/25 11:41:54;;;;;;;2.73;2.53;;;28.70;58.60;;;;;;5069694;28;20394;-72
2021/07/25 11:44:28;;;;;;;2.73;2.50;;;28.40;58.70;;;;;;5060911;28;20418;-72
2021/07/25 11:46:55;;;;;;;3.73;3.03;;;28.10;58.90;;;;;;5070039;28;20893;-69
2021/07/25 11:49:44;;;;;;;3.17;2.30;;;28.00;60.50;;;;;;5069713;28;20390;-72
2021/07/25 11:52:11;;;;;;;3.20;2.30;;;27.70;59.50;;;;;;5068629;28;20807;-72
2021/07/25 11:54:39;;;;;;;2.50;2.13;;;27.60;61.30;;;;;;5069561;28;20378;-72
2021/07/25 11:57:12;;;;;;;2.43;1.87;;;27.50;59.00;;;;;;5069500;28;20516;-72
2021/07/25 11:59:39;;;;;;;1.90;1.70;;;27.40;59.50;;;;;;5068785;28;20429;-72
2021/07/25 12:02:07;;;;;;;2.90;2.57;;;27.40;64.70;;;;;;5068824;28;20776;-70
2021/07/25 12:04:40;;;;;;;2.87;1.60;;;27.50;66.00;;;;;;5069324;28;20439;-72
2021/07/25 12:07:09;;;;;;;2.20;2.00;;;27.50;62.40;;;;;;5069266;28;20386;-72
2021/07/25 12:09:36;;;;;;;2.57;2.17;;;27.40;63.00;;;;;;5069123;28;20891;-72
2021/07/25 12:14:41;;;;;;;1.93;1.70;;;27.50;62.30;;;;;;5099563;27;20515;-72
2021/07/25 12:17:07;;;;;;;2.73;2.53;;;27.50;61.10;;;;;;5084295;28;20409;-72
2021/07/25 12:19:35;;;;;;;1.80;1.67;;;27.60;62.80;;;;;;5070254;28;20842;-72
2021/07/25 12:22:10;;;;;;;4.00;2.23;;;27.60;64.30;;;;;;5069821;28;20390;-72
2021/07/25 12:24:39;;;;;;;3.83;2.90;;;27.60;65.70;;;;;;5069608;28;20455;-72
2021/07/25 12:27:06;;;;;;;2.47;2.27;;;27.60;67.20;;;;;;5069756;28;20473;-72
2021/07/25 12:29:42;;;;;;;3.33;2.77;;;27.60;67.40;;;;;;5069843;28;20879;-72
2021/07/25 12:32:29;;;;;;;2.67;2.47;;;27.70;69.70;;;;;;5069697;28;20381;-72
2021/07/25 12:40:31;;;;;;;2.90;2.47;;;27.90;68.50;;;;;;5069896;28;21043;-70
2021/07/25 12:48:24;;;;;;;2.97;1.80;;;27.80;66.80;;;;;;5090153;28;20550;-71
2021/07/25 12:56:12;;;;;;;3.83;3.00;;;27.40;69.90;;;;;;5090658;27;20537;-71
2021/07/25 12:58:41;;;;;;;3.17;2.87;;;27.20;70.70;;;;;;5090673;28;20409;-71
2021/07/25 13:06:42;;;;;;;2.20;1.97;;;26.70;69.10;;;;;;5069927;28;20516;-72
2021/07/25 13:09:17;;;;;;;3.43;2.90;;;26.30;68.50;;;;;;5055878;28;20487;-72
2021/07/25 13:11:48;;;;;;;3.10;2.80;;;26.30;70.00;;;;;;5050725;28;20390;-72
2021/07/25 13:14:17;;;;;;;3.43;2.63;;;26.20;75.20;;;;;;5050350;28;20778;-72
2021/07/25 13:16:47;;;;;;;2.70;1.70;;;25.90;83.80;;;;;;5054993;28;20567;-72
2021/07/25 13:19:13;;;;;;;2.80;2.23;;;25.70;86.70;;;;;;5069723;28;20386;-72
2021/07/25 13:21:39;;;;;;;3.63;3.27;;;25.60;90.30;;;;;;5069583;28;20394;-72
2021/07/25 13:24:05;;;;;;;3.27;2.20;;;25.50;91.50;;;;;;5070012;28;20247;-72
2021/07/25 13:26:31;;;;;;;3.63;2.17;;;25.40;94.20;;;;;;5052769;28;21038;-72
2021/07/25 13:28:58;;;;;;;3.60;2.50;;;25.30;96.30;;;;;;5049732;28;20911;-72
2021/07/25 13:31:24;;;;;;;2.60;1.73;;;25.20;98.00;;;;;;5049512;28;20506;-72
2021/07/25 13:33:50;;;;;;;2.53;1.97;;;25.10;99.90;;;;;;5049528;28;20395;-72
2021/07/25 13:36:16;;;;;;;2.00;1.53;;;25.00;95.50;;;;;;5049694;28;20880;-72
2021/07/25 13:38:44;;;;;;;2.47;2.27;;;24.90;98.60;;;;;;5049428;28;20460;-72
2021/07/25 13:41:10;;;;;;;2.30;2.10;;;24.80;99.90;;;;;;5049780;28;20399;-71
2021/07/25 13:43:40;;;;;;;2.13;1.93;;;24.80;95.00;;;;;;5050793;28;20903;-72
2021/07/25 13:46:24;;;;;;;3.53;2.60;;;24.80;95.70;;;;;;5049114;28;20497;-72
2021/07/25 13:48:50;;;;;;;3.27;2.10;;;24.80;99.90;;;;;;5049224;28;20394;-72